createdAt,value
2023-05-04T00:02:08.212Z,12.77
2023-05-04T00:04:35.276Z,13.33
2023-05-04T00:07:02.404Z,15.17
2023-05-04T00:09:29.544Z,14.80
2023-05-04T00:11:56.710Z,16.03
2023-05-04T00:14:23.729Z,14.30
2023-05-04T00:16:50.977Z,15.03
2023-05-04T00:19:19.580Z,12.40
2023-05-04T00:21:46.743Z,18.87
2023-05-04T00:24:13.900Z,12.93
2023-05-04T00:26:42.290Z,14.83
2023-05-04T00:29:09.310Z,20.03
2023-05-04T00:31:36.612Z,15.20
2023-05-04T00:34:03.702Z,13.20
2023-05-04T00:36:30.704Z,17.07
2023-05-04T00:38:57.718Z,15.17
2023-05-04T00:41:24.970Z,14.00
2023-05-04T00:43:52.374Z,15.70
2023-05-04T00:46:19.961Z,18.07
2023-05-04T00:48:49.987Z,15.03
2023-05-04T00:51:19.358Z,18.47
2023-05-04T00:53:47.794Z,14.87
2023-05-04T00:56:16.642Z,17.50
2023-05-04T00:58:43.816Z,17.77
2023-05-04T01:01:11.020Z,17.10
2023-05-04T01:03:38.361Z,16.57
2023-05-04T01:06:23.399Z,16.20
2023-05-04T01:09:08.194Z,13.70
2023-05-04T01:11:44.228Z,14.73
2023-05-04T01:14:14.461Z,14.70
2023-05-04T01:16:41.667Z,14.87
2023-05-04T01:19:08.886Z,18.40
2023-05-04T01:21:36.937Z,17.23
2023-05-04T01:24:04.339Z,20.43
2023-05-04T01:26:39.363Z,15.20
2023-05-04T01:29:23.101Z,18.17
2023-05-04T01:31:52.122Z,13.63
2023-05-04T01:34:19.961Z,17.53
2023-05-04T01:36:48.110Z,15.90
2023-05-04T01:39:16.126Z,14.07
2023-05-04T01:41:43.333Z,16.37
2023-05-04T01:44:10.480Z,14.97
2023-05-04T01:46:37.795Z,18.83
2023-05-04T01:49:04.971Z,16.83
2023-05-04T01:51:31.975Z,24.33
2023-05-04T01:53:59.029Z,16.10
2023-05-04T01:56:26.197Z,22.17
2023-05-04T01:58:53.261Z,19.27
2023-05-04T02:01:20.521Z,18.17
2023-05-04T02:03:47.739Z,20.93
2023-05-04T02:06:14.930Z,19.03
2023-05-04T02:08:42.577Z,22.33
2023-05-04T02:11:09.675Z,21.40
2023-05-04T02:13:37.345Z,28.10
2023-05-04T02:16:04.928Z,18.60
2023-05-04T02:18:32.104Z,22.60
2023-05-04T02:20:59.120Z,23.67
2023-05-04T02:23:26.409Z,26.40
2023-05-04T02:25:55.334Z,20.67
2023-05-04T02:28:22.502Z,23.57
2023-05-04T02:30:49.563Z,21.27
2023-05-04T02:33:16.684Z,20.17
2023-05-04T02:35:43.750Z,22.40
2023-05-04T02:38:10.882Z,26.10
2023-05-04T02:40:37.914Z,23.87
2023-05-04T02:43:05.025Z,27.87
2023-05-04T02:45:32.197Z,23.90
2023-05-04T02:47:59.342Z,20.43
2023-05-04T02:50:26.480Z,22.53
2023-05-04T02:52:53.621Z,25.23
2023-05-04T02:55:20.965Z,26.47
2023-05-04T02:57:47.953Z,24.53
2023-05-04T03:00:15.566Z,30.27
2023-05-04T03:02:42.733Z,27.77
2023-05-04T03:05:09.905Z,24.87
2023-05-04T03:07:36.902Z,24.70
2023-05-04T03:10:04.560Z,27.77
2023-05-04T03:12:31.797Z,20.70
2023-05-04T03:15:01.350Z,31.70
2023-05-04T03:17:28.365Z,28.63
2023-05-04T03:19:55.369Z,22.03
2023-05-04T03:22:22.529Z,21.57
2023-05-04T03:24:49.537Z,21.00
2023-05-04T03:27:17.338Z,27.93
2023-05-04T03:29:44.447Z,26.37
2023-05-04T03:32:13.463Z,25.10
2023-05-04T03:34:40.541Z,23.57
2023-05-04T03:37:08.146Z,23.63
2023-05-04T03:39:35.217Z,25.13
2023-05-04T03:42:02.713Z,25.07
2023-05-04T03:44:30.256Z,24.90
2023-05-04T03:46:57.345Z,27.80
2023-05-04T03:49:24.409Z,24.53
2023-05-04T03:51:51.602Z,30.43
2023-05-04T03:54:18.736Z,28.37
2023-05-04T03:56:45.849Z,23.23
2023-05-04T03:59:12.913Z,25.20
2023-05-04T04:01:39.925Z,34.13
2023-05-04T04:04:07.077Z,29.83
2023-05-04T04:06:34.286Z,26.93
2023-05-04T04:09:01.382Z,38.70
2023-05-04T04:11:28.613Z,32.67
2023-05-04T04:13:56.173Z,39.50
2023-05-04T04:16:23.559Z,33.25
2023-05-04T04:18:50.956Z,32.85
2023-05-04T04:21:18.017Z,33.40
2023-05-04T04:23:45.144Z,35.25
2023-05-04T04:26:12.292Z,33.70
2023-05-04T04:28:39.382Z,31.13
2023-05-04T04:31:25.540Z,31.94
2023-05-04T04:34:03.129Z,29.27
2023-05-04T04:36:30.361Z,36.28
2023-05-04T04:38:57.416Z,31.45
2023-05-04T04:41:25.096Z,31.38
2023-05-04T04:43:52.199Z,33.60
2023-05-04T04:46:19.401Z,27.10
2023-05-04T04:48:47.248Z,29.67
2023-05-04T04:51:14.481Z,27.95
2023-05-04T04:53:41.597Z,23.33
2023-05-04T04:56:09.762Z,27.48
2023-05-04T04:58:36.945Z,25.95
2023-05-04T05:01:05.353Z,27.30
2023-05-04T05:03:32.688Z,28.88
2023-05-04T05:06:01.868Z,28.40
2023-05-04T05:08:28.974Z,30.55
2023-05-04T05:10:56.404Z,26.67
2023-05-04T05:13:23.445Z,25.33
2023-05-04T05:15:50.560Z,23.52
2023-05-04T05:18:17.679Z,24.30
2023-05-04T05:20:44.793Z,23.80
2023-05-04T05:23:11.820Z,23.20
2023-05-04T05:25:39.381Z,23.10
2023-05-04T05:28:07.224Z,22.42
2023-05-04T05:30:34.396Z,19.40
2023-05-04T05:33:02.274Z,21.38
2023-05-04T05:35:29.382Z,21.95
2023-05-04T05:37:56.433Z,24.05
2023-05-04T05:40:23.650Z,22.42
2023-05-04T05:42:50.663Z,20.75
2023-05-04T05:45:18.453Z,21.13
2023-05-04T05:47:45.590Z,20.48
2023-05-04T05:50:13.918Z,20.48
2023-05-04T05:52:41.078Z,20.02
2023-05-04T05:55:08.871Z,20.58
2023-05-04T05:57:35.979Z,21.50
2023-05-04T06:00:05.428Z,17.77
2023-05-04T06:02:32.818Z,18.40
2023-05-04T06:05:00.238Z,17.15
2023-05-04T06:07:27.366Z,21.63
2023-05-04T06:09:54.427Z,25.38
2023-05-04T06:12:21.490Z,17.90
2023-05-04T06:14:48.577Z,17.70
2023-05-04T06:17:15.749Z,19.63
2023-05-04T06:19:42.880Z,15.90
2023-05-04T06:22:09.987Z,23.88
2023-05-04T06:24:37.799Z,19.70
2023-05-04T06:27:04.868Z,14.05
2023-05-04T06:29:32.225Z,13.98
2023-05-04T06:31:59.577Z,12.55
2023-05-04T06:34:26.667Z,9.93
2023-05-04T06:36:53.757Z,10.95
2023-05-04T06:39:20.941Z,12.80
2023-05-04T06:41:47.969Z,8.65
2023-05-04T06:44:15.256Z,10.90
2023-05-04T06:46:42.287Z,7.65
2023-05-04T06:49:09.499Z,11.23
2023-05-04T06:51:37.761Z,15.20
2023-05-04T06:54:05.122Z,8.73
2023-05-04T06:56:32.597Z,10.13
2023-05-04T06:58:59.771Z,11.60
2023-05-04T07:01:26.955Z,11.52
2023-05-04T07:03:54.068Z,10.13
2023-05-04T07:06:21.288Z,7.45
2023-05-04T07:08:48.273Z,8.80
2023-05-04T07:11:15.420Z,8.43
2023-05-04T07:13:42.641Z,9.80
2023-05-04T07:16:09.927Z,8.25
2023-05-04T07:18:39.008Z,13.77
2023-05-04T07:21:26.793Z,9.02
2023-05-04T07:23:56.093Z,6.55
2023-05-04T07:26:23.603Z,9.38
2023-05-04T07:28:50.846Z,11.30
2023-05-04T07:31:18.074Z,9.02
2023-05-04T07:33:45.222Z,8.40
2023-05-04T07:36:12.418Z,12.23
2023-05-04T07:38:39.524Z,8.60
2023-05-04T07:41:07.349Z,11.15
2023-05-04T07:43:34.498Z,14.07
2023-05-04T07:46:01.701Z,11.02
2023-05-04T07:48:29.043Z,4.70
2023-05-04T07:50:56.146Z,5.63
2023-05-04T07:53:25.555Z,7.70
2023-05-04T07:55:57.560Z,3.58
2023-05-04T07:58:24.618Z,7.03
2023-05-04T08:00:52.025Z,3.50
2023-05-04T08:03:19.124Z,4.75
2023-05-04T08:05:46.375Z,7.32
2023-05-04T08:08:13.388Z,10.40
2023-05-04T08:10:40.889Z,5.10
2023-05-04T08:13:08.012Z,16.40
2023-05-04T08:15:35.136Z,5.00
2023-05-04T08:18:02.388Z,4.38
2023-05-04T08:20:29.575Z,3.88
2023-05-04T08:22:56.631Z,6.75
2023-05-04T08:25:23.681Z,9.02
2023-05-04T08:27:50.811Z,3.75
2023-05-04T08:30:18.368Z,4.72
2023-05-04T08:32:45.628Z,3.88
2023-05-04T08:35:13.473Z,4.13
2023-05-04T08:37:40.696Z,3.53
2023-05-04T08:40:08.707Z,3.20
2023-05-04T08:42:36.485Z,5.70
2023-05-04T08:45:04.311Z,7.25
2023-05-04T08:47:31.623Z,4.40
2023-05-04T08:49:58.819Z,2.85
2023-05-04T08:52:27.606Z,4.97
2023-05-04T08:54:57.054Z,12.25
2023-05-04T08:57:26.134Z,6.32
2023-05-04T08:59:54.950Z,9.55
2023-05-04T09:02:24.347Z,5.63
2023-05-04T09:04:52.826Z,5.75
2023-05-04T09:07:21.786Z,5.90
2023-05-04T09:09:51.699Z,4.80
2023-05-04T09:12:19.374Z,5.22
2023-05-04T09:14:46.767Z,5.85
2023-05-04T09:17:25.813Z,2.88
2023-05-04T09:20:03.790Z,8.88
2023-05-04T09:22:31.301Z,4.78
2023-05-04T09:25:13.133Z,5.15
2023-05-04T09:27:42.728Z,4.15
2023-05-04T09:30:12.687Z,2.50
2023-05-04T09:32:46.946Z,2.40
2023-05-04T09:35:29.297Z,3.75
2023-05-04T09:37:59.496Z,3.10
2023-05-04T09:40:42.246Z,3.83
2023-05-04T09:43:10.916Z,3.85
2023-05-04T09:45:44.711Z,4.50
2023-05-04T09:48:34.323Z,4.40
2023-05-04T09:51:07.787Z,5.18
2023-05-04T09:53:39.593Z,5.70
2023-05-04T09:56:20.535Z,6.97
2023-05-04T09:58:49.433Z,2.50
2023-05-04T10:01:17.423Z,6.25
2023-05-04T10:03:44.959Z,4.50
2023-05-04T10:06:12.750Z,4.00
2023-05-04T10:08:41.438Z,5.88
2023-05-04T10:11:08.676Z,6.03
2023-05-04T10:13:35.843Z,4.07
2023-05-04T10:16:21.504Z,4.72
2023-05-04T10:19:42.486Z,3.50
2023-05-04T10:22:48.191Z,2.72
2023-05-04T10:25:36.213Z,3.97
2023-05-04T10:28:18.375Z,5.32
2023-05-04T10:30:45.843Z,4.13
2023-05-04T10:33:13.390Z,2.75
2023-05-04T10:35:54.366Z,2.97
2023-05-04T10:38:33.426Z,3.10
2023-05-04T10:41:00.786Z,4.55
2023-05-04T10:43:32.620Z,3.85
2023-05-04T10:46:01.298Z,2.88
2023-05-04T10:48:37.513Z,4.47
2023-05-04T10:51:05.582Z,4.13
2023-05-04T10:53:33.203Z,8.75
2023-05-04T10:56:03.352Z,2.67
2023-05-04T10:58:30.819Z,4.55
2023-05-04T11:00:58.274Z,7.82
2023-05-04T11:03:25.561Z,4.05
2023-05-04T11:05:54.851Z,8.18
2023-05-04T11:08:24.753Z,7.72
2023-05-04T11:11:09.785Z,5.45
2023-05-04T11:13:46.179Z,3.10
2023-05-04T11:16:22.940Z,3.85
2023-05-04T11:18:50.511Z,4.22
2023-05-04T11:21:27.896Z,5.18
2023-05-04T11:24:04.183Z,14.93
2023-05-04T11:26:31.222Z,4.95
2023-05-04T11:28:58.633Z,3.28
2023-05-04T11:31:25.952Z,3.08
2023-05-04T11:33:55.175Z,5.13
2023-05-04T11:36:23.097Z,5.82
2023-05-04T11:38:51.101Z,2.88
2023-05-04T11:41:18.266Z,5.43
2023-05-04T11:43:46.743Z,5.15
2023-05-04T11:46:14.818Z,7.00
2023-05-04T11:48:42.374Z,4.72
2023-05-04T11:51:09.612Z,4.88
2023-05-04T11:53:41.343Z,7.10
2023-05-04T11:56:09.670Z,3.22
2023-05-04T11:58:36.985Z,5.20
2023-05-04T12:01:05.143Z,5.97
2023-05-04T12:06:05.018Z,8.32
2023-05-04T12:08:35.444Z,4.72
2023-05-04T12:11:16.775Z,5.85
2023-05-04T12:13:48.995Z,4.85
2023-05-04T12:16:19.159Z,3.92
2023-05-04T12:18:48.393Z,4.55
2023-05-04T12:21:21.669Z,4.05
2023-05-04T12:23:49.264Z,5.53
2023-05-04T12:26:18.980Z,3.40
2023-05-04T12:28:47.302Z,4.65
2023-05-04T12:31:14.459Z,7.32
2023-05-04T12:33:41.592Z,5.05
2023-05-04T12:36:09.227Z,4.40
2023-05-04T12:38:38.217Z,3.28
2023-05-04T12:41:08.127Z,5.93
2023-05-04T12:43:35.263Z,5.60
2023-05-04T12:46:02.451Z,6.25
2023-05-04T12:48:32.642Z,7.78
2023-05-04T12:51:01.633Z,5.38
2023-05-04T12:53:30.140Z,5.30
2023-05-04T12:55:57.701Z,4.25
2023-05-04T12:58:25.042Z,3.60
2023-05-04T13:00:52.105Z,4.57
2023-05-04T13:03:19.582Z,5.63
2023-05-04T13:05:48.573Z,6.00
2023-05-04T13:08:17.315Z,4.53
2023-05-04T13:10:46.265Z,5.28
2023-05-04T13:13:16.380Z,5.03
2023-05-04T13:15:44.401Z,5.88
2023-05-04T13:18:12.611Z,4.95
2023-05-04T13:20:40.560Z,4.63
2023-05-04T13:23:07.642Z,3.85
2023-05-04T13:25:34.669Z,6.13
2023-05-04T13:28:01.761Z,12.25
2023-05-04T13:30:29.159Z,8.88
2023-05-04T13:32:56.352Z,7.65
2023-05-04T13:35:23.990Z,6.65
2023-05-04T13:37:51.577Z,8.25
2023-05-04T13:40:18.895Z,6.88
2023-05-04T13:42:46.052Z,6.05
2023-05-04T13:45:13.218Z,6.32
2023-05-04T13:47:40.771Z,3.45
2023-05-04T13:50:08.836Z,3.30
2023-05-04T13:52:36.942Z,8.70
2023-05-04T13:55:04.772Z,7.75
2023-05-04T13:57:32.279Z,4.45
2023-05-04T14:00:07.141Z,7.95
2023-05-04T14:02:35.437Z,5.78
2023-05-04T14:05:04.230Z,10.07
2023-05-04T14:07:31.754Z,5.35
2023-05-04T14:09:59.831Z,5.40
2023-05-04T14:12:28.943Z,5.50
2023-05-04T14:14:57.355Z,5.50
2023-05-04T14:17:24.857Z,7.57
2023-05-04T14:19:51.883Z,5.55
2023-05-04T14:22:19.080Z,5.18
2023-05-04T14:24:46.300Z,6.70
2023-05-04T14:27:13.286Z,7.93
2023-05-04T14:29:40.461Z,4.90
2023-05-04T14:32:07.545Z,5.90
2023-05-04T14:34:34.755Z,5.82
2023-05-04T14:37:02.000Z,5.68
2023-05-04T14:39:29.080Z,4.35
2023-05-04T14:41:57.314Z,5.90
2023-05-04T14:44:26.276Z,5.65
2023-05-04T14:46:53.504Z,4.25
2023-05-04T14:49:35.950Z,6.50
2023-05-04T14:52:04.763Z,5.35
2023-05-04T14:54:31.991Z,6.03
2023-05-04T14:56:59.974Z,4.18
2023-05-04T14:59:27.117Z,5.35
2023-05-04T15:01:55.420Z,7.65
2023-05-04T15:04:22.892Z,6.70
2023-05-04T15:06:50.520Z,9.80
2023-05-04T15:09:17.743Z,7.30
2023-05-04T15:11:44.801Z,4.20
2023-05-04T15:14:11.848Z,10.25
2023-05-04T15:16:38.958Z,7.43
2023-05-04T15:19:07.057Z,8.68
2023-05-04T15:21:34.667Z,13.32
2023-05-04T15:24:02.083Z,7.32
2023-05-04T15:26:30.947Z,6.90
2023-05-04T15:28:58.595Z,9.15
2023-05-04T15:31:26.066Z,7.57
2023-05-04T15:33:54.250Z,8.40
2023-05-04T15:36:21.541Z,5.20
2023-05-04T15:38:48.585Z,4.40
2023-05-04T15:41:15.941Z,6.80
2023-05-04T15:43:43.040Z,4.78
2023-05-04T15:46:10.118Z,5.50
2023-05-04T15:48:37.301Z,7.85
2023-05-04T15:51:08.114Z,6.53
2023-05-04T15:53:35.120Z,3.50
2023-05-04T15:56:04.021Z,6.40
2023-05-04T15:58:32.766Z,7.28
2023-05-04T16:01:03.823Z,4.60
2023-05-04T16:03:32.337Z,5.10
2023-05-04T16:05:59.510Z,7.22
2023-05-04T16:08:26.939Z,7.93
2023-05-04T16:10:54.294Z,8.73
2023-05-04T16:13:21.396Z,6.35
2023-05-04T16:15:52.332Z,5.38
2023-05-04T16:18:19.990Z,8.48
2023-05-04T16:20:48.622Z,7.72
2023-05-04T16:23:17.659Z,7.05
2023-05-04T16:25:44.977Z,5.32
2023-05-04T16:28:12.291Z,5.85
2023-05-04T16:30:39.559Z,5.18
2023-05-04T16:33:06.598Z,6.88
2023-05-04T16:35:34.735Z,2.65
2023-05-04T16:38:01.759Z,4.75
2023-05-04T16:40:29.055Z,4.75
2023-05-04T16:42:56.176Z,6.78
2023-05-04T16:45:25.570Z,5.55
2023-05-04T16:47:52.868Z,3.70
2023-05-04T16:50:19.934Z,7.20
2023-05-04T16:52:47.032Z,7.43
2023-05-04T16:55:14.131Z,2.90
2023-05-04T16:57:41.574Z,5.10
2023-05-04T17:00:10.649Z,3.83
2023-05-04T17:02:37.943Z,6.97
2023-05-04T17:05:06.895Z,3.40
2023-05-04T17:07:34.242Z,7.57
2023-05-04T17:10:01.540Z,3.92
2023-05-04T17:12:29.004Z,3.80
2023-05-04T17:14:56.331Z,3.97
2023-05-04T17:17:23.439Z,5.90
2023-05-04T17:19:50.532Z,5.82
2023-05-04T17:22:17.578Z,6.93
2023-05-04T17:24:45.741Z,3.40
2023-05-04T17:27:13.487Z,4.60
2023-05-04T17:29:41.330Z,4.57
2023-05-04T17:32:08.854Z,3.22
2023-05-04T17:34:36.644Z,4.57
2023-05-04T17:37:05.216Z,6.40
2023-05-04T17:39:32.390Z,5.18
2023-05-04T17:41:59.686Z,5.70
2023-05-04T17:44:28.845Z,10.18
2023-05-04T17:46:56.454Z,4.47
2023-05-04T17:49:23.569Z,4.50
2023-05-04T17:51:50.736Z,4.65
2023-05-04T17:54:17.916Z,2.88
2023-05-04T17:56:45.021Z,4.82
2023-05-04T17:59:12.189Z,3.58
2023-05-04T18:01:39.305Z,9.77
2023-05-04T18:04:06.366Z,4.28
2023-05-04T18:06:34.178Z,5.70
2023-05-04T18:09:01.436Z,6.30
2023-05-04T18:11:28.544Z,6.43
2023-05-04T18:13:56.688Z,3.72
2023-05-04T18:16:25.056Z,6.28
2023-05-04T18:18:52.614Z,3.17
2023-05-04T18:21:19.811Z,7.70
2023-05-04T18:23:47.002Z,9.40
2023-05-04T18:26:22.644Z,4.82
2023-05-04T18:28:50.402Z,18.92
2023-05-04T18:31:18.988Z,7.60
2023-05-04T18:33:46.195Z,6.45
2023-05-04T18:36:13.416Z,3.10
2023-05-04T18:38:41.025Z,9.90
2023-05-04T18:41:08.310Z,4.53
2023-05-04T18:43:35.314Z,5.53
2023-05-04T18:46:09.062Z,9.90
2023-05-04T18:48:36.170Z,9.27
2023-05-04T18:51:03.650Z,6.97
2023-05-04T18:53:30.925Z,3.63
2023-05-04T18:56:06.013Z,6.70
2023-05-04T18:58:33.516Z,5.00
2023-05-04T19:01:00.709Z,8.02
2023-05-04T19:03:28.353Z,9.40
2023-05-04T19:05:55.912Z,14.13
2023-05-04T19:08:23.229Z,14.85
2023-05-04T19:10:50.640Z,11.80
2023-05-04T19:13:17.859Z,12.27
2023-05-04T19:15:45.210Z,7.75
2023-05-04T19:18:12.393Z,7.43
2023-05-04T19:20:39.961Z,13.50
2023-05-04T19:23:07.103Z,9.02
2023-05-04T19:25:35.372Z,7.80
2023-05-04T19:28:08.677Z,6.97
2023-05-04T19:30:39.972Z,12.95
2023-05-04T19:33:08.649Z,9.23
2023-05-04T19:35:36.510Z,10.63
2023-05-04T19:38:06.486Z,13.93
2023-05-04T19:40:34.824Z,22.45
2023-05-04T19:43:01.912Z,11.63
2023-05-04T19:45:29.093Z,18.27
2023-05-04T19:47:56.570Z,10.35
2023-05-04T19:50:23.890Z,9.80
2023-05-04T19:52:51.822Z,8.90
2023-05-04T19:55:19.090Z,9.07
2023-05-04T19:57:47.768Z,18.38
2023-05-04T20:00:17.186Z,15.80
2023-05-04T20:02:44.431Z,13.10
2023-05-04T20:05:11.811Z,16.80
2023-05-04T20:07:39.286Z,13.10
2023-05-04T20:10:07.046Z,14.75
2023-05-04T20:12:49.855Z,15.50
2023-05-04T20:15:17.059Z,14.85
2023-05-04T20:17:44.113Z,12.10
2023-05-04T20:20:12.052Z,11.32
2023-05-04T20:22:39.191Z,9.32
2023-05-04T20:25:06.548Z,11.25
2023-05-04T20:27:33.577Z,22.27
2023-05-04T20:30:00.629Z,11.38
2023-05-04T20:32:28.202Z,7.35
2023-05-04T20:34:56.096Z,9.70
2023-05-04T20:37:23.950Z,9.13
2023-05-04T20:39:54.000Z,11.50
2023-05-04T20:42:21.622Z,8.27
2023-05-04T20:44:48.783Z,9.75
2023-05-04T20:47:15.816Z,11.05
2023-05-04T20:49:42.911Z,14.30
2023-05-04T20:52:10.258Z,10.32
2023-05-04T20:54:37.347Z,9.45
2023-05-04T20:57:04.466Z,9.25
2023-05-04T20:59:31.716Z,6.57
2023-05-04T21:01:58.867Z,11.95
2023-05-04T21:04:26.061Z,9.68
2023-05-04T21:06:53.227Z,10.05
2023-05-04T21:09:21.705Z,15.95
2023-05-04T21:11:48.733Z,8.85
2023-05-04T21:14:16.572Z,8.70
2023-05-04T21:16:43.724Z,8.50
2023-05-04T21:19:10.931Z,8.32
2023-05-04T21:21:40.937Z,4.80
2023-05-04T21:24:14.194Z,10.73
2023-05-04T21:26:41.783Z,13.25
2023-05-04T21:29:15.445Z,6.03
2023-05-04T21:31:42.742Z,5.65
2023-05-04T21:34:10.415Z,5.03
2023-05-04T21:36:39.081Z,5.28
2023-05-04T21:39:06.366Z,7.10
2023-05-04T21:41:33.528Z,6.55
2023-05-04T21:44:00.679Z,8.75
2023-05-04T21:46:27.873Z,8.52
2023-05-04T21:48:54.990Z,5.97
2023-05-04T21:51:22.117Z,7.10
2023-05-04T21:53:49.141Z,6.45
2023-05-04T21:56:16.183Z,8.68
2023-05-04T21:58:43.422Z,6.05
2023-05-04T22:01:17.213Z,5.45
2023-05-04T22:03:44.898Z,7.20
2023-05-04T22:06:12.234Z,7.35
2023-05-04T22:08:39.720Z,6.53
2023-05-04T22:11:07.523Z,6.53
2023-05-04T22:13:34.606Z,7.75
2023-05-04T22:16:01.621Z,6.55
2023-05-04T22:18:28.678Z,8.15
2023-05-04T22:20:55.780Z,8.18
2023-05-04T22:23:22.843Z,13.43
2023-05-04T22:25:49.921Z,4.10
2023-05-04T22:28:17.234Z,6.47
2023-05-04T22:30:44.395Z,9.70
2023-05-04T22:33:11.657Z,6.78
2023-05-04T22:35:38.723Z,13.35
2023-05-04T22:38:05.831Z,8.63
2023-05-04T22:40:32.942Z,7.53
2023-05-04T22:42:59.965Z,5.80
2023-05-04T22:45:27.156Z,6.72
2023-05-04T22:47:54.370Z,4.35
2023-05-04T22:50:21.423Z,5.47
2023-05-04T22:52:48.521Z,9.43
2023-05-04T22:55:15.713Z,6.78
2023-05-04T22:57:42.820Z,8.52
2023-05-04T23:00:11.010Z,7.68
2023-05-04T23:02:38.440Z,11.07
2023-05-04T23:05:06.571Z,8.10
2023-05-04T23:07:33.940Z,10.60
2023-05-04T23:10:01.106Z,6.10
2023-05-04T23:12:28.488Z,6.93
2023-05-04T23:14:55.767Z,7.60
2023-05-04T23:17:22.903Z,7.53
2023-05-04T23:19:50.399Z,6.00
2023-05-04T23:22:17.730Z,8.05
2023-05-04T23:24:44.781Z,5.95
2023-05-04T23:27:12.554Z,6.88
2023-05-04T23:29:39.816Z,7.35
2023-05-04T23:32:07.063Z,7.43
2023-05-04T23:34:34.288Z,7.13
2023-05-04T23:37:01.624Z,8.32
2023-05-04T23:39:28.889Z,6.20
2023-05-04T23:41:56.089Z,8.23
2023-05-04T23:44:23.880Z,10.32
2023-05-04T23:46:51.173Z,9.10
2023-05-04T23:49:18.254Z,7.65
2023-05-04T23:51:45.243Z,8.52
2023-05-04T23:54:12.230Z,6.45
2023-05-04T23:56:39.374Z,8.30
2023-05-04T23:59:06.660Z,12.82
